createdAt,value
2022-09-24T00:01:41.170Z,9.35
2022-09-24T00:04:12.662Z,9.40
2022-09-24T00:06:42.428Z,8.88
2022-09-24T00:09:09.851Z,9.65
2022-09-24T00:11:37.293Z,10.57
2022-09-24T00:14:06.957Z,9.38
2022-09-24T00:16:34.989Z,8.90
2022-09-24T00:19:03.891Z,11.55
2022-09-24T00:21:32.503Z,10.60
2022-09-24T00:24:00.939Z,11.98
2022-09-24T00:26:47.297Z,13.32
2022-09-24T00:29:16.331Z,13.07
2022-09-24T00:31:43.723Z,13.85
2022-09-24T00:34:11.416Z,13.93
2022-09-24T00:36:39.122Z,13.52
2022-09-24T00:39:07.206Z,12.13
2022-09-24T00:41:36.912Z,10.88
2022-09-24T00:44:24.193Z,12.00
2022-09-24T00:46:51.876Z,10.65
2022-09-24T00:49:19.813Z,10.88
2022-09-24T00:51:49.583Z,8.07
2022-09-24T00:54:19.693Z,7.90
2022-09-24T00:56:47.793Z,10.20
2022-09-24T00:59:19.215Z,12.18
2022-09-24T01:01:47.912Z,9.55
2022-09-24T01:04:17.552Z,9.93
2022-09-24T01:06:45.230Z,8.98
2022-09-24T01:09:12.793Z,9.88
2022-09-24T01:11:50.708Z,8.57
2022-09-24T01:14:18.194Z,9.40
2022-09-24T01:16:57.549Z,9.90
2022-09-24T01:19:25.068Z,10.63
2022-09-24T01:21:56.341Z,10.82
2022-09-24T01:24:42.389Z,15.52
2022-09-24T01:27:28.428Z,13.90
2022-09-24T01:30:03.247Z,15.10
2022-09-24T01:35:03.109Z,16.88
2022-09-24T01:37:33.843Z,16.00
2022-09-24T01:40:02.426Z,15.70
2022-09-24T01:42:30.741Z,16.00
2022-09-24T01:44:58.409Z,13.40
2022-09-24T01:47:39.925Z,12.75
2022-09-24T01:50:21.634Z,12.55
2022-09-24T01:52:49.182Z,10.30
2022-09-24T01:55:18.874Z,11.52
2022-09-24T01:57:49.128Z,11.10
2022-09-24T02:00:18.908Z,9.65
2022-09-24T02:06:43.664Z,7.03
2022-09-24T02:09:32.935Z,8.23
2022-09-24T02:12:38.136Z,8.85
2022-09-24T02:56:01.478Z,9.52
2022-09-24T02:58:29.875Z,9.57
2022-09-24T03:00:57.385Z,7.88
2022-09-24T03:03:25.004Z,8.57
2022-09-24T03:05:53.076Z,7.85
2022-09-24T03:08:21.434Z,8.90
2022-09-24T03:10:51.312Z,8.73
2022-09-24T03:13:19.247Z,8.77
2022-09-24T03:15:47.289Z,8.95
2022-09-24T03:18:15.238Z,9.48
2022-09-24T03:20:43.609Z,9.02
2022-09-24T03:23:10.956Z,8.55
2022-09-24T03:25:38.271Z,9.57
2022-09-24T03:28:05.630Z,10.45
2022-09-24T03:30:51.709Z,11.00
2022-09-24T03:33:19.087Z,9.80
2022-09-24T03:35:46.650Z,15.77
2022-09-24T03:38:14.142Z,10.25
2022-09-24T03:40:41.464Z,9.50
2022-09-24T03:43:08.959Z,9.75
2022-09-24T03:45:36.317Z,11.65
2022-09-24T03:48:06.689Z,10.13
2022-09-24T03:50:37.371Z,12.68
2022-09-24T03:53:04.815Z,12.40
2022-09-24T03:55:32.137Z,9.25
2022-09-24T03:57:59.590Z,8.65
2022-09-24T04:00:27.356Z,11.48
2022-09-24T04:02:54.848Z,9.75
2022-09-24T04:05:22.494Z,9.52
2022-09-24T04:07:49.828Z,7.18
2022-09-24T04:10:17.228Z,10.90
2022-09-24T04:12:45.995Z,6.97
2022-09-24T04:15:13.370Z,4.15
2022-09-24T04:17:40.888Z,7.13
2022-09-24T04:20:09.200Z,7.70
2022-09-24T04:22:36.494Z,3.70
2022-09-24T04:25:03.851Z,9.52
2022-09-24T04:27:31.150Z,5.18
2022-09-24T04:29:58.412Z,6.43
2022-09-24T04:32:25.802Z,4.93
2022-09-24T04:34:53.078Z,4.93
2022-09-24T04:37:20.435Z,6.18
2022-09-24T04:39:47.909Z,6.00
2022-09-24T04:42:19.133Z,7.63
2022-09-24T04:44:47.349Z,6.72
2022-09-24T04:47:15.582Z,7.18
2022-09-24T04:49:45.141Z,6.57
2022-09-24T04:52:15.138Z,5.25
2022-09-24T04:54:45.153Z,4.63
2022-09-24T04:57:12.609Z,6.47
2022-09-24T04:59:40.001Z,6.82
2022-09-24T05:02:09.753Z,8.40
2022-09-24T05:04:37.879Z,5.22
2022-09-24T05:07:05.358Z,7.47
2022-09-24T05:09:32.724Z,4.97
2022-09-24T05:12:00.323Z,7.40
2022-09-24T05:14:27.675Z,8.05
2022-09-24T05:16:55.028Z,8.38
2022-09-24T05:19:22.422Z,8.63
2022-09-24T05:21:50.203Z,8.82
2022-09-24T05:24:17.553Z,6.07
2022-09-24T05:27:03.350Z,6.97
2022-09-24T05:29:30.699Z,8.20
2022-09-24T05:31:58.024Z,4.70
2022-09-24T05:34:25.284Z,5.90
2022-09-24T05:36:52.540Z,8.55
2022-09-24T05:39:19.808Z,9.10
2022-09-24T05:41:47.342Z,4.88
2022-09-24T05:44:14.686Z,10.85
2022-09-24T05:46:41.980Z,7.38
2022-09-24T05:49:09.413Z,5.90
2022-09-24T05:51:36.670Z,6.43
2022-09-24T05:54:04.079Z,6.32
2022-09-24T05:56:31.323Z,3.88
2022-09-24T05:59:00.927Z,7.10
2022-09-24T06:01:32.129Z,9.75
2022-09-24T06:04:02.495Z,5.97
2022-09-24T06:06:32.232Z,5.78
2022-09-24T06:08:59.534Z,6.88
2022-09-24T06:11:29.893Z,7.53
2022-09-24T06:13:57.168Z,7.65
2022-09-24T06:16:24.500Z,6.03
2022-09-24T06:18:52.055Z,4.93
2022-09-24T06:21:19.288Z,7.47
2022-09-24T06:23:46.813Z,9.43
2022-09-24T06:26:14.660Z,8.27
2022-09-24T06:28:42.271Z,10.38
2022-09-24T06:31:11.888Z,9.88
2022-09-24T06:33:40.579Z,8.80
2022-09-24T06:36:09.063Z,10.48
2022-09-24T06:41:59.628Z,9.77
2022-09-24T06:44:34.690Z,10.05
2022-09-24T06:48:03.214Z,11.57
2022-09-24T06:51:02.777Z,9.27
2022-09-24T06:54:05.755Z,9.95
2022-09-24T06:59:37.669Z,8.48
2022-09-24T07:02:22.924Z,7.18
2022-09-24T07:05:19.406Z,6.45
2022-09-24T07:08:12.736Z,5.95
2022-09-24T07:11:11.050Z,5.28
2022-09-24T07:13:55.015Z,5.90
2022-09-24T07:17:09.334Z,5.30
2022-09-24T07:19:54.454Z,7.35
2022-09-24T07:22:28.193Z,7.65
2022-09-24T07:25:03.978Z,9.40
2022-09-24T07:30:41.466Z,7.97
2022-09-24T07:33:09.227Z,8.13
2022-09-24T07:35:39.654Z,8.80
2022-09-24T07:38:11.769Z,9.32
2022-09-24T07:40:39.314Z,6.88
2022-09-24T07:43:12.339Z,7.93
2022-09-24T07:46:02.491Z,8.68
2022-09-24T07:48:29.938Z,7.00
2022-09-24T07:50:57.274Z,6.35
2022-09-24T07:53:24.713Z,8.15
2022-09-24T07:55:52.711Z,6.82
2022-09-24T07:58:19.988Z,5.07
2022-09-24T08:00:47.270Z,3.90
2022-09-24T08:03:15.035Z,3.65
2022-09-24T08:05:45.645Z,5.25
2022-09-24T08:08:13.741Z,2.88
2022-09-24T08:10:42.133Z,4.75
2022-09-24T08:13:09.567Z,4.60
2022-09-24T08:15:36.913Z,4.47
2022-09-24T08:18:05.087Z,5.70
2022-09-24T08:20:37.580Z,3.75
2022-09-24T08:23:05.780Z,4.72
2022-09-24T08:25:33.132Z,3.65
2022-09-24T08:28:06.917Z,3.33
2022-09-24T08:30:35.107Z,5.17
2022-09-24T08:33:04.972Z,3.58
2022-09-24T08:35:32.666Z,4.65
2022-09-24T08:38:01.385Z,5.80
2022-09-24T08:40:30.592Z,5.18
2022-09-24T08:43:07.921Z,2.45
2022-09-24T08:45:59.242Z,5.55
2022-09-24T08:48:27.505Z,5.47
2022-09-24T08:51:01.435Z,4.72
2022-09-24T08:53:41.334Z,4.88
2022-09-24T08:56:09.423Z,6.97
2022-09-24T08:58:48.299Z,6.13
2022-09-24T09:01:18.388Z,4.50
2022-09-24T09:03:49.009Z,10.80
2022-09-24T09:06:22.249Z,7.38
2022-09-24T09:09:12.348Z,6.00
2022-09-24T09:11:40.809Z,6.82
2022-09-24T09:14:30.609Z,5.90
2022-09-24T09:17:03.351Z,5.22
2022-09-24T09:19:40.948Z,5.18
2022-09-24T09:22:13.820Z,6.05
2022-09-24T09:24:44.467Z,6.43
2022-09-24T09:27:14.960Z,6.32
2022-09-24T09:29:46.591Z,5.43
2022-09-24T09:32:21.638Z,6.03
2022-09-24T09:34:49.228Z,6.32
2022-09-24T09:37:28.359Z,7.00
2022-09-24T09:40:13.869Z,6.63
2022-09-24T09:42:42.157Z,4.60
2022-09-24T09:45:28.383Z,5.63
2022-09-24T09:47:57.140Z,6.15
2022-09-24T09:50:36.939Z,6.07
2022-09-24T09:53:05.683Z,4.65
2022-09-24T09:55:37.410Z,3.55
2022-09-24T09:58:12.335Z,7.38
2022-09-24T10:00:39.716Z,7.15
2022-09-24T10:03:07.427Z,9.80
2022-09-24T10:05:35.701Z,5.15
2022-09-24T10:08:03.414Z,6.95
2022-09-24T10:10:33.710Z,7.45
2022-09-24T10:13:14.252Z,7.72
2022-09-24T10:16:01.242Z,4.75
2022-09-24T10:18:47.346Z,6.85
2022-09-24T10:21:16.248Z,6.50
2022-09-24T10:23:44.512Z,7.00
2022-09-24T10:26:22.035Z,3.63
2022-09-24T10:29:09.929Z,6.13
2022-09-24T10:31:39.798Z,5.80
2022-09-24T10:34:33.085Z,4.95
2022-09-24T10:37:20.618Z,4.70
2022-09-24T10:40:00.496Z,4.18
2022-09-24T10:42:29.473Z,6.80
2022-09-24T10:45:01.121Z,4.55
2022-09-24T10:47:43.014Z,4.50
2022-09-24T10:50:29.394Z,7.63
2022-09-24T10:53:07.661Z,5.45
2022-09-24T10:55:50.206Z,4.93
2022-09-24T10:58:34.731Z,4.25
2022-09-24T11:01:28.697Z,9.10
2022-09-24T11:04:09.957Z,5.60
2022-09-24T11:07:18.100Z,6.30
2022-09-24T11:10:10.321Z,5.05
2022-09-24T11:12:57.373Z,5.35
2022-09-24T11:15:45.492Z,6.22
2022-09-24T11:18:38.096Z,6.10
2022-09-24T11:21:19.699Z,5.32
2022-09-24T11:24:06.737Z,6.82
2022-09-24T11:26:48.563Z,7.75
2022-09-24T11:29:16.647Z,7.57
2022-09-24T11:32:00.201Z,6.78
2022-09-24T11:35:23.471Z,5.85
2022-09-24T11:38:32.764Z,6.38
2022-09-24T11:41:28.113Z,7.60
2022-09-24T11:44:22.836Z,4.57
2022-09-24T11:47:17.135Z,6.35
2022-09-24T11:49:55.383Z,4.78
2022-09-24T11:52:38.389Z,5.57
2022-09-24T11:55:23.843Z,6.65
2022-09-24T11:57:59.485Z,6.22
2022-09-24T12:00:32.205Z,6.28
2022-09-24T12:03:07.901Z,6.40
2022-09-24T12:05:45.779Z,7.97
2022-09-24T12:08:15.079Z,7.15
2022-09-24T12:11:09.232Z,5.72
2022-09-24T12:13:41.860Z,6.20
2022-09-24T12:16:14.663Z,5.85
2022-09-24T12:19:00.250Z,7.35
2022-09-24T12:21:34.631Z,7.07
2022-09-24T12:24:14.032Z,5.32
2022-09-24T12:26:43.026Z,8.38
2022-09-24T12:29:41.998Z,6.50
2022-09-24T12:32:48.579Z,8.43
2022-09-24T12:35:39.724Z,5.53
2022-09-24T12:38:20.495Z,5.65
2022-09-24T12:41:33.074Z,5.82
2022-09-24T12:43:59.995Z,5.93
2022-09-24T12:46:39.449Z,5.07
2022-09-24T12:49:24.823Z,3.85
2022-09-24T12:52:00.568Z,4.38
2022-09-24T12:54:33.554Z,3.85
2022-09-24T12:57:24.434Z,2.80
2022-09-24T12:59:56.606Z,5.60
2022-09-24T13:02:30.079Z,4.15
2022-09-24T13:05:02.907Z,6.10
2022-09-24T13:07:40.835Z,3.78
2022-09-24T13:10:16.760Z,6.80
2022-09-24T13:12:45.996Z,4.65
2022-09-24T13:15:30.036Z,5.43
2022-09-24T13:18:19.848Z,5.82
2022-09-24T13:21:00.225Z,4.32
2022-09-24T13:23:29.401Z,6.80
2022-09-24T13:26:00.056Z,3.58
2022-09-24T13:28:38.294Z,6.80
2022-09-24T13:31:22.448Z,3.75
2022-09-24T13:34:22.025Z,5.80
2022-09-24T13:37:00.805Z,6.60
2022-09-24T13:39:42.447Z,6.57
2022-09-24T13:42:20.931Z,5.40
2022-09-24T13:44:52.937Z,5.53
2022-09-24T13:47:27.643Z,6.30
2022-09-24T13:53:08.391Z,6.90
2022-09-24T13:55:45.145Z,4.85
2022-09-24T13:58:28.305Z,6.53
2022-09-24T14:00:55.749Z,4.70
2022-09-24T14:03:26.746Z,6.50
2022-09-24T14:05:54.399Z,5.15
2022-09-24T14:08:24.383Z,5.95
2022-09-24T14:10:51.518Z,7.43
2022-09-24T14:13:23.640Z,4.82
2022-09-24T14:15:56.058Z,4.47
2022-09-24T14:18:24.330Z,7.22
2022-09-24T14:21:26.985Z,6.28
2022-09-24T14:24:15.883Z,4.10
2022-09-24T14:27:02.987Z,5.68
2022-09-24T14:29:49.832Z,5.50
2022-09-24T14:32:22.969Z,4.45
2022-09-24T14:34:53.965Z,7.90
2022-09-24T14:37:37.841Z,5.80
2022-09-24T14:40:12.496Z,6.53
2022-09-24T14:45:40.525Z,5.85
2022-09-24T14:48:25.634Z,6.53
2022-09-24T14:50:52.776Z,4.68
2022-09-24T14:53:36.177Z,3.75
2022-09-24T14:56:26.463Z,4.28
2022-09-24T14:58:53.426Z,3.95
2022-09-24T15:01:24.047Z,5.68
2022-09-24T15:03:54.572Z,6.60
2022-09-24T15:06:28.956Z,5.53
2022-09-24T15:09:06.354Z,4.15
2022-09-24T15:11:37.752Z,5.90
2022-09-24T15:14:16.270Z,4.03
2022-09-24T15:16:44.905Z,3.72
2022-09-24T15:19:30.908Z,2.95
2022-09-24T15:21:58.755Z,5.90
2022-09-24T15:24:26.004Z,6.32
2022-09-24T15:27:21.649Z,5.47
2022-09-24T15:32:19.820Z,4.43
2022-09-24T15:34:47.616Z,5.95
2022-09-24T15:37:18.860Z,5.20
2022-09-24T15:39:49.439Z,4.15
2022-09-24T15:42:22.072Z,3.97
2022-09-24T15:44:50.878Z,7.85
2022-09-24T15:47:18.753Z,7.80
2022-09-24T15:49:45.768Z,5.38
2022-09-24T15:52:32.961Z,6.40
2022-09-24T15:55:02.683Z,4.03
2022-09-24T15:57:30.206Z,7.07
2022-09-24T15:59:57.069Z,5.88
2022-09-24T16:02:28.883Z,5.07
2022-09-24T16:05:00.124Z,4.45
2022-09-24T16:07:29.866Z,3.28
2022-09-24T16:09:56.678Z,5.93
2022-09-24T16:12:27.976Z,7.85
2022-09-24T16:14:59.434Z,5.05
2022-09-24T16:17:27.825Z,5.80
2022-09-24T16:19:54.749Z,9.02
2022-09-24T16:22:21.998Z,4.78
2022-09-24T16:24:48.898Z,8.18
2022-09-24T16:27:18.675Z,8.90
2022-09-24T16:29:45.611Z,6.40
2022-09-24T16:32:13.847Z,6.95
2022-09-24T16:34:41.546Z,6.93
2022-09-24T16:37:09.218Z,5.65
2022-09-24T16:39:36.108Z,3.80
2022-09-24T16:42:03.340Z,5.65
2022-09-24T16:44:30.223Z,7.07
2022-09-24T16:46:57.179Z,6.90
2022-09-24T16:49:24.225Z,6.30
2022-09-24T16:51:51.201Z,6.90
2022-09-24T16:54:19.796Z,7.32
2022-09-24T16:56:50.369Z,6.30
2022-09-24T16:59:18.201Z,4.13
2022-09-24T17:01:45.527Z,7.60
2022-09-24T17:04:13.085Z,7.07
2022-09-24T17:06:40.363Z,6.45
2022-09-24T17:09:26.135Z,3.53
2022-09-24T17:11:53.003Z,4.97
2022-09-24T17:14:19.929Z,4.57
2022-09-24T17:16:46.924Z,4.15
2022-09-24T17:19:14.058Z,6.68
2022-09-24T17:21:42.694Z,3.92
2022-09-24T17:24:10.232Z,6.57
2022-09-24T17:26:38.121Z,4.57
2022-09-24T17:29:05.247Z,3.00
2022-09-24T17:31:32.803Z,4.85
2022-09-24T17:34:02.383Z,7.63
2022-09-24T17:36:30.560Z,4.25
2022-09-24T17:38:59.281Z,7.68
2022-09-24T17:41:27.928Z,4.25
2022-09-24T17:43:59.548Z,5.63
2022-09-24T17:46:29.146Z,7.28
2022-09-24T17:48:58.281Z,4.82
2022-09-24T17:51:25.162Z,3.70
2022-09-24T17:53:53.865Z,3.05
2022-09-24T17:56:25.361Z,6.57
2022-09-24T17:58:54.364Z,5.53
2022-09-24T18:01:28.375Z,2.03
2022-09-24T18:03:59.316Z,3.20
2022-09-24T18:06:32.494Z,5.45
2022-09-24T18:09:01.370Z,3.78
2022-09-24T18:12:13.472Z,5.43
2022-09-24T18:14:45.690Z,4.43
2022-09-24T18:17:12.581Z,6.13
2022-09-24T18:19:39.511Z,5.03
2022-09-24T18:22:09.286Z,3.55
2022-09-24T18:24:36.163Z,4.57
2022-09-24T18:27:03.446Z,4.72
2022-09-24T18:29:30.645Z,2.95
2022-09-24T18:31:57.603Z,3.28
2022-09-24T18:34:25.155Z,7.18
2022-09-24T18:36:52.062Z,5.78
2022-09-24T18:39:25.342Z,6.07
2022-09-24T18:41:53.188Z,3.85
2022-09-24T18:44:20.446Z,4.97
2022-09-24T18:46:52.173Z,4.97
2022-09-24T18:49:19.673Z,9.15
2022-09-24T18:51:47.027Z,5.00
2022-09-24T18:54:14.900Z,4.63
2022-09-24T18:56:43.515Z,6.00
2022-09-24T18:59:15.981Z,6.65
2022-09-24T19:01:44.102Z,3.17
2022-09-24T19:04:12.519Z,5.20
2022-09-24T19:06:42.510Z,8.68
2022-09-24T19:09:13.955Z,5.03
2022-09-24T19:11:44.170Z,4.07
2022-09-24T19:14:18.051Z,7.82
2022-09-24T19:16:45.901Z,6.43
2022-09-24T19:19:13.081Z,5.10
2022-09-24T19:21:41.397Z,5.80
2022-09-24T19:24:09.793Z,5.57
2022-09-24T19:26:37.222Z,7.85
2022-09-24T19:29:05.153Z,7.40
2022-09-24T19:31:38.889Z,4.70
2022-09-24T19:34:27.442Z,6.35
2022-09-24T19:37:03.795Z,5.50
2022-09-24T19:39:30.779Z,7.40
2022-09-24T19:41:57.604Z,3.88
2022-09-24T19:44:24.508Z,5.07
2022-09-24T19:46:51.526Z,5.85
2022-09-24T19:49:20.378Z,4.07
2022-09-24T19:51:47.237Z,3.22
2022-09-24T19:54:14.281Z,4.57
2022-09-24T19:56:44.743Z,5.45
2022-09-24T19:59:13.326Z,6.05
2022-09-24T20:01:40.592Z,4.40
2022-09-24T20:04:07.930Z,4.40
2022-09-24T20:06:37.063Z,5.50
2022-09-24T20:09:05.125Z,5.40
2022-09-24T20:11:32.980Z,7.22
2022-09-24T20:14:01.337Z,4.57
2022-09-24T20:16:34.619Z,5.32
2022-09-24T20:19:02.556Z,3.50
2022-09-24T20:21:34.633Z,6.47
2022-09-24T20:24:03.779Z,6.50
2022-09-24T20:26:49.496Z,3.97
2022-09-24T20:29:19.622Z,5.75
2022-09-24T20:31:52.125Z,4.70
2022-09-24T20:34:33.428Z,5.35
2022-09-24T20:37:01.823Z,7.70
2022-09-24T20:39:29.711Z,10.10
2022-09-24T20:41:58.358Z,8.18
2022-09-24T20:44:29.081Z,6.18
2022-09-24T20:47:56.236Z,5.88
2022-09-24T20:50:37.222Z,6.05
2022-09-24T21:08:10.343Z,4.22
2022-09-24T21:14:01.674Z,3.85
2022-09-24T21:16:38.325Z,4.73
2022-09-24T21:19:13.816Z,5.47
2022-09-24T21:21:42.075Z,4.95
2022-09-24T21:24:31.388Z,3.45
2022-09-24T21:27:02.001Z,5.10
2022-09-24T21:29:29.044Z,5.95
2022-09-24T21:31:57.699Z,9.88
2022-09-24T21:34:25.762Z,6.45
2022-09-24T21:37:17.644Z,5.00
2022-09-24T21:43:54.080Z,5.32
2022-09-24T22:27:48.286Z,4.22
2022-09-24T22:30:15.381Z,9.35
2022-09-24T22:32:42.413Z,5.65
2022-09-24T22:35:29.683Z,7.07
2022-09-24T22:37:57.135Z,7.65
2022-09-24T22:40:26.698Z,4.15
2022-09-24T22:42:53.710Z,5.03
2022-09-24T22:45:22.140Z,7.97
2022-09-24T22:47:49.063Z,6.30
2022-09-24T22:50:16.062Z,6.95
2022-09-24T22:52:45.952Z,8.23
2022-09-24T22:55:12.930Z,8.23
2022-09-24T22:57:39.902Z,7.40
2022-09-24T23:00:07.629Z,8.93
2022-09-24T23:02:35.363Z,3.85
2022-09-24T23:05:02.293Z,5.40
2022-09-24T23:07:29.271Z,6.55
2022-09-24T23:09:56.113Z,4.45
2022-09-24T23:12:23.282Z,7.35
2022-09-24T23:14:55.143Z,4.05
2022-09-24T23:17:22.294Z,5.13
2022-09-24T23:19:49.389Z,6.53
2022-09-24T23:22:17.469Z,4.43
2022-09-24T23:24:44.764Z,3.63
2022-09-24T23:27:11.947Z,6.90
2022-09-24T23:29:39.294Z,4.22
2022-09-24T23:32:06.475Z,4.82
2022-09-24T23:34:33.592Z,5.13
2022-09-24T23:37:00.979Z,4.88
2022-09-24T23:39:28.269Z,2.88
2022-09-24T23:41:55.654Z,4.45
2022-09-24T23:44:22.676Z,4.10
2022-09-24T23:46:49.636Z,5.25
2022-09-24T23:49:16.596Z,5.88
2022-09-24T23:51:44.142Z,6.03
2022-09-24T23:54:11.033Z,4.90
2022-09-24T23:56:38.390Z,3.55
2022-09-24T23:59:05.511Z,5.20
